Time;durP1;ratioP1;P1;durP2;ratioP2;P2;SDS_P1;SDS_P2;PMS_P1;PMS_P2;Temp;Humidity;BMP_temperature;BMP_pressure;BME280_temperature;BME280_humidity;BME280_pressure;Samples;Min_cycle;Max_cycle;Signal;HPM_P1;HPM_P2
2023/09/09 00:00:43;;;;;;;1.23;1.10;;;;;;;9.30;85.02;99514.66;4861621;29;20114;-57
2023/09/09 00:03:08;;;;;;;3.53;2.72;;;;;;;9.32;85.70;99517.88;4845437;29;20136;-57
2023/09/09 00:05:34;;;;;;;1.52;1.33;;;;;;;9.31;84.54;99523.38;4861772;29;20076;-58
2023/09/09 00:08:00;;;;;;;1.30;1.20;;;;;;;9.33;85.58;99516.84;4861769;29;20053;-55
2023/09/09 00:10:25;;;;;;;5.68;1.40;;;;;;;9.34;85.26;99528.22;4861468;29;20041;-57
2023/09/09 00:12:51;;;;;;;1.45;1.35;;;;;;;9.30;85.81;99521.78;4861656;29;20053;-56
2023/09/09 00:15:17;;;;;;;2.00;1.35;;;;;;;9.29;84.96;99531.56;4861573;29;20060;-58
2023/09/09 00:17:43;;;;;;;3.03;1.40;;;;;;;9.29;85.37;99525.44;4861427;29;20061;-55
2023/09/09 00:20:11;;;;;;;1.88;1.25;;;;;;;9.26;85.52;99523.25;4844654;29;20098;-55
2023/09/09 00:22:37;;;;;;;1.45;1.30;;;;;;;9.22;85.74;99536.13;4861440;29;20058;-57
2023/09/09 00:25:03;;;;;;;3.00;1.30;;;;;;;9.21;86.15;99537.16;4861248;29;20045;-55
2023/09/09 00:27:29;;;;;;;1.52;1.30;;;;;;;9.23;86.47;99532.44;4861293;29;20060;-55
2023/09/09 00:29:55;;;;;;;1.85;1.27;;;;;;;9.19;85.71;99531.28;4860930;29;20045;-55
2023/09/09 00:32:20;;;;;;;1.48;1.38;;;;;;;9.18;86.54;99537.63;4861019;29;20045;-56
2023/09/09 00:34:46;;;;;;;1.40;1.30;;;;;;;9.18;87.08;99539.47;4859853;29;20069;-57
2023/09/09 00:37:12;;;;;;;1.65;1.30;;;;;;;9.17;86.10;99540.47;4859912;29;20226;-54
2023/09/09 00:39:37;;;;;;;3.25;1.50;;;;;;;9.17;86.95;99541.28;4859677;29;20068;-57
2023/09/09 00:42:03;;;;;;;3.38;1.25;;;;;;;9.19;86.17;99541.06;4860939;29;20121;-56
2023/09/09 00:44:29;;;;;;;1.17;1.17;;;;;;;9.17;86.25;99549.22;4860843;29;20045;-57
2023/09/09 00:46:54;;;;;;;4.13;1.50;;;;;;;9.13;87.29;99547.25;4860241;29;20089;-56
2023/09/09 00:49:21;;;;;;;3.67;1.38;;;;;;;9.07;87.27;99546.31;4861146;29;20186;-58
2023/09/09 00:51:46;;;;;;;2.45;1.30;;;;;;;9.01;87.80;99539.28;4844459;29;20415;-57
2023/09/09 00:54:12;;;;;;;1.45;1.35;;;;;;;8.95;88.05;99534.88;4844442;29;20053;-57
2023/09/09 00:56:38;;;;;;;2.03;1.30;;;;;;;8.90;88.45;99532.09;4859489;29;20080;-56
2023/09/09 00:59:04;;;;;;;2.17;1.50;;;;;;;8.84;88.44;99542.50;4859619;29;20144;-56
2023/09/09 01:01:31;;;;;;;1.50;1.40;;;;;;;8.77;89.17;99541.78;4860558;29;20171;-57
2023/09/09 01:03:57;;;;;;;2.80;1.45;;;;;;;8.70;89.55;99541.03;4859206;29;20053;-55
2023/09/09 01:06:23;;;;;;;4.00;1.73;;;;;;;8.68;90.00;99553.69;4860446;29;20052;-55
2023/09/09 01:08:49;;;;;;;2.30;1.50;;;;;;;8.67;89.74;99560.00;4860384;29;20054;-55
2023/09/09 01:11:15;;;;;;;1.88;1.40;;;;;;;8.67;89.77;99561.81;4859538;29;20144;-55
2023/09/09 01:13:40;;;;;;;3.13;1.60;;;;;;;8.66;90.00;99565.50;4860760;29;20133;-56
2023/09/09 01:16:07;;;;;;;1.40;1.30;;;;;;;8.64;90.35;99568.34;4860383;29;20085;-58
2023/09/09 01:18:34;;;;;;;2.70;1.60;;;;;;;8.60;90.35;99569.84;4859144;29;20140;-56
2023/09/09 01:21:10;;;;;;;1.50;1.40;;;;;;;8.55;90.80;99567.84;4843931;29;20044;-57
2023/09/09 01:23:37;;;;;;;1.88;1.60;;;;;;;8.50;90.78;99580.09;4859151;29;20140;-55
2023/09/09 01:26:03;;;;;;;2.08;1.85;;;;;;;8.43;91.60;99569.59;4860191;29;20052;-55
2023/09/09 01:28:29;;;;;;;2.60;2.10;;;;;;;8.38;91.96;99569.41;4858917;29;20082;-55
2023/09/09 01:30:54;;;;;;;4.28;2.40;;;;;;;8.31;91.84;99566.84;4859299;29;20152;-57
2023/09/09 01:33:20;;;;;;;3.53;2.63;;;;;;;8.28;92.51;99574.41;4858688;29;20170;-56
2023/09/09 01:35:46;;;;;;;4.47;2.72;;;;;;;8.22;92.67;99573.44;4858830;29;20045;-58
2023/09/09 01:38:12;;;;;;;4.40;2.47;;;;;;;8.16;93.09;99572.47;4858824;29;20049;-58
2023/09/09 01:40:38;;;;;;;6.00;3.13;;;;;;;8.09;93.36;99557.69;4858611;29;20431;-56
2023/09/09 01:43:05;;;;;;;4.18;3.53;;;;;;;8.04;93.91;99565.47;4858663;29;20064;-58
2023/09/09 01:45:31;;;;;;;6.80;4.07;;;;;;;8.01;94.26;99574.63;4858690;29;20070;-55
2023/09/09 01:47:57;;;;;;;7.13;4.03;;;;;;;8.00;94.82;99577.47;4828087;29;20098;-55
2023/09/09 01:50:22;;;;;;;3.33;2.55;;;;;;;7.94;94.73;99574.69;4858544;29;20372;-58
2023/09/09 01:52:48;;;;;;;6.05;2.92;;;;;;;7.95;94.80;99565.72;4843014;29;20049;-56
2023/09/09 01:55:14;;;;;;;5.85;2.50;;;;;;;7.91;95.08;99564.56;4858586;29;20045;-58
2023/09/09 01:57:39;;;;;;;3.70;2.70;;;;;;;7.91;95.16;99567.19;4858576;29;20045;-56
2023/09/09 02:00:09;;;;;;;5.28;2.70;;;;;;;7.90;95.22;99568.22;4858451;29;20061;-56
2023/09/09 02:02:42;;;;;;;4.50;2.92;;;;;;;7.94;95.43;99565.94;4858422;29;20085;-57
2023/09/09 02:05:09;;;;;;;4.15;2.63;;;;;;;7.95;95.35;99563.09;4858248;29;20124;-55
2023/09/09 02:07:35;;;;;;;3.78;2.30;;;;;;;7.99;95.35;99563.47;4858412;29;20106;-56
2023/09/09 02:10:00;;;;;;;7.47;2.60;;;;;;;7.97;95.20;99570.78;4859487;29;20053;-57
2023/09/09 02:12:28;;;;;;;5.13;2.40;;;;;;;7.91;95.25;99585.69;4858269;29;20046;-57
2023/09/09 02:14:54;;;;;;;3.83;2.67;;;;;;;7.84;95.25;99579.63;4843236;29;20277;-56
2023/09/09 02:17:20;;;;;;;7.82;2.92;;;;;;;7.78;95.35;99588.41;4858614;29;20601;-57
2023/09/09 02:19:45;;;;;;;4.43;2.58;;;;;;;7.71;95.78;99591.09;4858586;29;20052;-59
2023/09/09 02:22:11;;;;;;;3.55;2.45;;;;;;;7.65;96.07;99591.94;4859582;29;20068;-55
2023/09/09 02:24:37;;;;;;;3.83;2.67;;;;;;;7.62;96.66;99587.09;4858253;29;20049;-58
2023/09/09 02:27:03;;;;;;;5.57;2.67;;;;;;;7.56;96.87;99584.47;4842631;29;20054;-57
2023/09/09 02:29:28;;;;;;;3.85;2.80;;;;;;;7.56;97.09;99589.75;4858030;29;20073;-58
2023/09/09 02:31:54;;;;;;;4.95;2.75;;;;;;;7.50;97.39;99586.97;4857855;29;20416;-57
2023/09/09 02:34:20;;;;;;;5.32;2.65;;;;;;;7.48;97.14;99604.81;4859220;29;20053;-59
2023/09/09 02:37:16;;;;;;;4.85;2.63;;;;;;;7.40;97.40;99604.25;4858858;29;20050;-57
2023/09/09 02:39:43;;;;;;;4.70;2.70;;;;;;;7.36;97.71;99598.59;4858156;29;20431;-57
2023/09/09 02:42:16;;;;;;;5.38;2.83;;;;;;;7.35;97.90;99602.25;4857763;29;20046;-57
2023/09/09 02:44:42;;;;;;;4.18;2.80;;;;;;;7.28;97.95;99610.19;4842959;29;20045;-57
2023/09/09 02:47:09;;;;;;;7.93;3.28;;;;;;;7.28;98.54;99612.84;4857878;29;20070;-57
2023/09/09 02:49:35;;;;;;;5.57;3.22;;;;;;;7.25;98.34;99607.97;4857767;29;20053;-58
2023/09/09 02:52:01;;;;;;;5.80;2.92;;;;;;;7.26;98.43;99606.97;4857651;29;20527;-57
2023/09/09 02:54:27;;;;;;;7.15;3.50;;;;;;;7.26;98.34;99608.78;4857809;29;20045;-58
2023/09/09 02:56:53;;;;;;;4.47;3.10;;;;;;;7.24;98.60;99608.22;4857707;29;20100;-57
2023/09/09 02:59:18;;;;;;;6.10;2.97;;;;;;;7.24;99.04;99608.22;4857764;29;20049;-57
2023/09/09 03:01:44;;;;;;;4.53;3.15;;;;;;;7.22;98.96;99607.59;4857766;29;20112;-57
2023/09/09 03:04:11;;;;;;;3.80;3.20;;;;;;;7.25;99.20;99613.25;4842315;29;20066;-59
2023/09/09 03:06:37;;;;;;;5.25;3.50;;;;;;;7.27;98.85;99620.97;4859104;29;20521;-57
2023/09/09 03:09:04;;;;;;;5.97;3.88;;;;;;;7.26;98.89;99628.06;4857540;29;20049;-56
2023/09/09 03:11:29;;;;;;;13.43;4.90;;;;;;;7.25;98.85;99630.91;4857810;29;20072;-57
2023/09/09 03:13:55;;;;;;;6.32;4.30;;;;;;;7.27;98.89;99642.88;4842470;29;20049;-56
2023/09/09 03:16:21;;;;;;;6.53;4.45;;;;;;;7.33;98.27;99635.16;4857518;29;20049;-58
2023/09/09 03:18:47;;;;;;;6.78;4.38;;;;;;;7.39;97.95;99640.38;4842408;29;20057;-57
2023/09/09 03:21:12;;;;;;;7.10;4.68;;;;;;;7.46;97.57;99641.16;4858852;29;20042;-59
2023/09/09 03:23:38;;;;;;;7.10;4.53;;;;;;;7.51;97.33;99649.25;4857680;29;20050;-57
2023/09/09 03:26:04;;;;;;;8.20;5.15;;;;;;;7.63;96.59;99648.59;4857785;29;20041;-59
2023/09/09 03:28:31;;;;;;;7.45;5.22;;;;;;;7.66;96.45;99640.25;4857546;29;20413;-57
2023/09/09 03:30:59;;;;;;;6.55;4.88;;;;;;;7.76;96.43;99640.56;4860961;29;20047;-57
2023/09/09 03:33:27;;;;;;;13.75;5.88;;;;;;;7.87;95.62;99641.72;4845548;29;20049;-58
2023/09/09 03:35:53;;;;;;;8.68;4.63;;;;;;;7.93;94.92;99643.50;4860874;29;20433;-57
2023/09/09 03:38:19;;;;;;;7.22;5.47;;;;;;;7.91;94.90;99638.47;4860011;29;20085;-57
2023/09/09 03:40:45;;;;;;;7.38;5.32;;;;;;;7.95;95.20;99639.66;4861928;29;20104;-58
2023/09/09 03:43:12;;;;;;;14.07;5.97;;;;;;;8.04;94.99;99645.47;4860956;29;20049;-57
2023/09/09 03:45:38;;;;;;;16.00;5.40;;;;;;;8.07;94.20;99650.31;4862219;29;20046;-54
2023/09/09 03:48:04;;;;;;;11.38;5.72;;;;;;;8.12;93.84;99650.50;4860554;29;20447;-57
2023/09/09 03:50:31;;;;;;;8.15;5.57;;;;;;;8.25;94.05;99661.97;4845362;29;20053;-57
2023/09/09 03:52:58;;;;;;;12.60;6.07;;;;;;;8.28;93.59;99665.00;4845387;29;20097;-55
2023/09/09 03:55:25;;;;;;;18.40;6.95;;;;;;;8.31;93.31;99669.03;4860735;29;20108;-56
2023/09/09 03:57:51;;;;;;;11.50;5.93;;;;;;;8.36;93.11;99669.22;4860600;29;20042;-56
2023/09/09 04:00:18;;;;;;;14.05;7.20;;;;;;;8.39;92.59;99656.41;4845106;29;20392;-56
2023/09/09 04:02:44;;;;;;;14.48;6.72;;;;;;;8.49;91.95;99663.03;4860537;29;20041;-57
2023/09/09 04:05:11;;;;;;;9.27;6.40;;;;;;;8.60;91.65;99663.13;4845111;29;20052;-58
2023/09/09 04:07:37;;;;;;;7.07;5.55;;;;;;;8.74;90.93;99657.72;4860412;29;20053;-57
2023/09/09 04:10:04;;;;;;;10.77;5.72;;;;;;;8.84;90.75;99663.31;4860242;29;20053;-58
2023/09/09 04:12:30;;;;;;;11.57;5.70;;;;;;;8.84;89.91;99672.03;4860179;29;20052;-58
2023/09/09 04:14:56;;;;;;;16.00;6.57;;;;;;;8.86;89.62;99675.28;4860191;29;20045;-58
2023/09/09 04:17:21;;;;;;;12.05;6.60;;;;;;;8.85;89.65;99678.97;4844728;29;20053;-56
2023/09/09 04:19:47;;;;;;;10.82;6.35;;;;;;;8.88;88.98;99688.25;4860095;29;20368;-58
2023/09/09 04:22:13;;;;;;;9.98;6.68;;;;;;;8.95;89.24;99680.28;4859865;29;20054;-58
2023/09/09 04:24:39;;;;;;;11.80;6.70;;;;;;;9.02;88.48;99686.31;4860085;29;20108;-59
2023/09/09 04:27:05;;;;;;;9.55;6.97;;;;;;;9.00;87.08;99696.28;4844493;29;20057;-56
2023/09/09 04:29:31;;;;;;;11.40;7.35;;;;;;;9.04;87.64;99689.53;4859913;29;20053;-58
2023/09/09 04:31:58;;;;;;;8.98;6.13;;;;;;;9.09;86.97;99690.50;4814233;29;20412;-56
2023/09/09 04:34:24;;;;;;;8.35;5.22;;;;;;;9.08;87.06;99693.34;4859794;29;20038;-55
2023/09/09 04:36:50;;;;;;;10.23;6.53;;;;;;;9.13;85.95;99705.94;4844313;29;20056;-57
2023/09/09 04:39:17;;;;;;;10.55;6.85;;;;;;;9.13;86.11;99706.72;4859533;29;20061;-56
2023/09/09 04:41:44;;;;;;;10.82;7.57;;;;;;;9.19;86.86;99705.84;4859429;29;20049;-57
2023/09/09 04:44:10;;;;;;;13.27;6.70;;;;;;;9.26;85.66;99703.94;4859613;29;20445;-55
2023/09/09 04:46:37;;;;;;;9.77;5.97;;;;;;;9.31;85.72;99709.38;4858991;29;20551;-56
2023/09/09 04:49:03;;;;;;;11.55;6.30;;;;;;;9.30;86.59;99706.97;4843923;29;20092;-57
2023/09/09 04:51:30;;;;;;;7.38;5.50;;;;;;;9.46;85.85;99711.63;4859108;29;20041;-58
2023/09/09 04:53:57;;;;;;;5.95;4.50;;;;;;;9.41;84.58;99706.22;4858519;29;20060;-57
2023/09/09 04:56:24;;;;;;;5.97;4.85;;;;;;;9.43;84.54;99706.78;4858321;29;20056;-56
2023/09/09 04:58:50;;;;;;;5.75;4.57;;;;;;;9.35;85.21;99703.63;4859248;29;20053;-53
2023/09/09 05:01:16;;;;;;;4.90;4.15;;;;;;;9.44;85.06;99703.13;4859449;29;20056;-58
2023/09/09 05:03:42;;;;;;;5.05;4.18;;;;;;;9.75;83.37;99701.31;4859466;29;20055;-57
2023/09/09 05:06:08;;;;;;;5.05;3.88;;;;;;;9.99;82.38;99721.53;4859206;29;20049;-55
2023/09/09 05:08:35;;;;;;;6.10;4.47;;;;;;;10.14;81.99;99718.47;4858910;29;20084;-59
2023/09/09 05:11:00;;;;;;;5.00;3.95;;;;;;;10.32;80.81;99722.13;4860633;29;20504;-54
2023/09/09 05:13:28;;;;;;;6.63;3.90;;;;;;;10.66;79.56;99721.38;4843582;29;20118;-58
2023/09/09 05:15:56;;;;;;;5.82;4.60;;;;;;;10.72;79.26;99729.47;4858965;29;20081;-57
2023/09/09 05:18:22;;;;;;;5.75;4.40;;;;;;;10.86;78.07;99729.00;4859165;29;20072;-57
2023/09/09 05:20:47;;;;;;;5.53;4.50;;;;;;;10.99;77.29;99735.09;4858365;29;20045;-57
2023/09/09 05:23:13;;;;;;;7.80;4.50;;;;;;;10.88;76.93;99734.06;4858193;29;20507;-57
2023/09/09 05:25:39;;;;;;;5.35;4.78;;;;;;;10.96;77.05;99732.91;4858168;29;20049;-61
2023/09/09 05:28:05;;;;;;;5.20;4.47;;;;;;;10.91;77.07;99730.94;4858039;29;20054;-56
2023/09/09 05:30:30;;;;;;;5.00;4.43;;;;;;;10.74;77.80;99732.69;4856946;29;20045;-61
2023/09/09 05:32:56;;;;;;;6.90;5.10;;;;;;;10.67;77.84;99741.53;4856677;29;20339;-57
2023/09/09 05:35:22;;;;;;;5.93;5.25;;;;;;;10.65;78.60;99735.69;4856553;29;20041;-57
2023/09/09 05:37:47;;;;;;;5.70;4.72;;;;;;;10.70;77.46;99737.63;4827993;29;20050;-58
2023/09/09 05:40:14;;;;;;;5.35;4.53;;;;;;;10.82;77.56;99745.59;4842765;29;20109;-58
2023/09/09 05:42:42;;;;;;;5.57;4.00;;;;;;;10.87;78.65;99740.41;4858135;29;20465;-57
2023/09/09 05:45:11;;;;;;;4.82;4.10;;;;;;;10.89;77.80;99741.78;4828064;29;20511;-59
2023/09/09 05:47:37;;;;;;;5.55;3.40;;;;;;;10.97;77.40;99748.63;4843037;29;20057;-57
2023/09/09 05:50:05;;;;;;;3.83;3.42;;;;;;;10.99;75.40;99751.03;4858028;29;20455;-58
2023/09/09 05:52:31;;;;;;;4.32;3.20;;;;;;;11.04;75.42;99757.25;4840796;29;20045;-57
2023/09/09 05:54:57;;;;;;;4.05;3.38;;;;;;;11.09;76.27;99759.22;4828054;29;20468;-59
2023/09/09 05:57:23;;;;;;;3.25;2.95;;;;;;;11.23;75.82;99762.44;4858446;29;20057;-58
2023/09/09 05:59:50;;;;;;;3.90;3.28;;;;;;;11.32;75.08;99759.22;4812978;29;20397;-57
2023/09/09 06:02:17;;;;;;;4.47;2.75;;;;;;;11.30;74.39;99765.78;4858285;29;20049;-55
2023/09/09 06:04:43;;;;;;;2.80;2.60;;;;;;;11.16;74.96;99765.22;4858249;29;20068;-60
2023/09/09 06:07:09;;;;;;;5.32;3.10;;;;;;;11.14;75.42;99772.56;4842740;29;20134;-57
2023/09/09 06:09:34;;;;;;;3.38;2.80;;;;;;;11.01;76.04;99764.88;4858299;29;20061;-59
2023/09/09 06:12:01;;;;;;;7.60;3.00;;;;;;;10.83;75.91;99769.25;4858230;29;20128;-56
2023/09/09 06:14:28;;;;;;;3.55;2.70;;;;;;;10.67;76.49;99772.56;4858139;29;20427;-59
2023/09/09 06:16:53;;;;;;;3.92;2.70;;;;;;;10.79;76.46;99773.38;4858158;29;20038;-56
2023/09/09 06:19:19;;;;;;;3.40;3.10;;;;;;;10.82;76.42;99774.75;4842892;29;20064;-59
2023/09/09 06:21:45;;;;;;;2.80;2.50;;;;;;;10.94;75.54;99777.41;4858421;29;20042;-59
2023/09/09 06:24:12;;;;;;;2.72;2.42;;;;;;;10.92;74.82;99775.00;4857918;29;20050;-60
2023/09/09 06:26:39;;;;;;;3.42;2.50;;;;;;;11.20;74.37;99766.34;4857941;29;20045;-58
2023/09/09 06:29:05;;;;;;;2.97;2.47;;;;;;;11.52;72.83;99765.97;4842511;29;20061;-56
2023/09/09 06:31:31;;;;;;;3.15;2.78;;;;;;;11.66;72.91;99763.88;4857952;29;20051;-59
2023/09/09 06:33:58;;;;;;;2.40;2.20;;;;;;;11.78;70.64;99769.94;4858887;29;20061;-58
2023/09/09 06:36:24;;;;;;;3.47;2.05;;;;;;;11.98;70.01;99777.53;4857981;29;20052;-59
2023/09/09 06:38:51;;;;;;;2.25;2.05;;;;;;;12.24;69.13;99773.50;4827826;29;20144;-58
2023/09/09 06:41:16;;;;;;;2.15;1.92;;;;;;;12.37;68.02;99770.53;4859295;29;20065;-58
2023/09/09 06:43:43;;;;;;;2.15;1.80;;;;;;;12.43;66.86;99766.09;4859510;29;20488;-56
2023/09/09 06:46:09;;;;;;;2.17;1.95;;;;;;;12.58;67.16;99760.25;4857866;29;20128;-59
2023/09/09 06:48:34;;;;;;;2.83;2.10;;;;;;;12.65;66.67;99763.56;4859250;29;20064;-56
2023/09/09 06:51:00;;;;;;;2.20;2.00;;;;;;;12.67;67.60;99780.88;4858852;29;20132;-59
2023/09/09 06:53:26;;;;;;;2.30;1.90;;;;;;;12.77;66.00;99788.22;4859226;29;20084;-57
2023/09/09 06:55:52;;;;;;;1.75;1.65;;;;;;;12.70;66.25;99784.91;4858895;29;20048;-58
2023/09/09 06:58:18;;;;;;;2.30;1.50;;;;;;;12.78;65.87;99778.38;4859196;29;20053;-59
2023/09/09 07:00:53;;;;;;;1.77;1.67;;;;;;;12.77;64.84;99780.25;4858936;29;20124;-59
2023/09/09 07:03:19;;;;;;;1.70;1.50;;;;;;;12.80;64.57;99794.91;4860502;29;20101;-58
2023/09/09 07:05:45;;;;;;;2.78;1.80;;;;;;;12.91;64.66;99786.03;4831054;29;20068;-58
2023/09/09 07:08:11;;;;;;;3.10;1.92;;;;;;;12.97;64.36;99787.75;4862901;29;20400;-57
2023/09/09 07:10:36;;;;;;;1.42;1.33;;;;;;;13.00;62.71;99792.56;4862878;29;20049;-60
2023/09/09 07:13:03;;;;;;;2.83;1.63;;;;;;;12.94;63.03;99798.84;4862257;29;20069;-57
2023/09/09 07:15:29;;;;;;;3.75;1.40;;;;;;;13.05;62.67;99803.28;4862758;29;20068;-57
2023/09/09 07:17:55;;;;;;;1.50;1.40;;;;;;;13.11;62.54;99798.84;4861161;29;20467;-57
2023/09/09 07:20:21;;;;;;;2.22;1.33;;;;;;;13.12;62.22;99800.47;4862345;29;20046;-59
2023/09/09 07:22:47;;;;;;;1.30;1.20;;;;;;;13.12;62.48;99809.25;4861431;29;20043;-57
2023/09/09 07:25:13;;;;;;;1.27;1.17;;;;;;;13.18;62.06;99820.78;4861135;29;20482;-58
2023/09/09 07:27:39;;;;;;;1.10;1.10;;;;;;;13.05;61.61;99815.78;4862537;29;20045;-56
2023/09/09 07:30:06;;;;;;;1.17;1.08;;;;;;;12.94;62.26;99820.97;4860805;29;20409;-57
2023/09/09 07:32:32;;;;;;;1.30;1.20;;;;;;;12.94;62.34;99818.31;4862418;29;20089;-59
2023/09/09 07:34:58;;;;;;;1.10;1.00;;;;;;;12.85;62.46;99818.91;4862007;29;20056;-60
2023/09/09 07:37:23;;;;;;;1.75;1.30;;;;;;;12.79;62.59;99812.72;4860827;29;20050;-58
2023/09/09 07:39:50;;;;;;;1.30;1.20;;;;;;;12.91;62.99;99810.81;4861446;29;20062;-57
2023/09/09 07:42:16;;;;;;;1.88;1.75;;;;;;;12.95;62.52;99817.25;4862059;29;20050;-60
2023/09/09 07:44:43;;;;;;;1.40;1.30;;;;;;;12.89;61.70;99820.88;4862352;29;20037;-58
2023/09/09 07:47:09;;;;;;;1.25;1.17;;;;;;;12.93;60.77;99811.34;4860420;29;20049;-59
2023/09/09 07:49:35;;;;;;;2.40;1.23;;;;;;;12.94;61.53;99810.31;4861759;29;20053;-56
2023/09/09 07:52:02;;;;;;;1.88;1.20;;;;;;;12.96;60.81;99823.38;4861988;29;20411;-58
2023/09/09 07:54:28;;;;;;;3.60;1.20;;;;;;;13.09;61.57;99814.25;4862073;29;20090;-57
2023/09/09 07:56:54;;;;;;;2.00;1.38;;;;;;;13.22;61.25;99829.88;4845196;29;20057;-57
2023/09/09 07:59:20;;;;;;;1.35;1.23;;;;;;;13.00;59.45;99832.50;4861938;29;20553;-58
2023/09/09 08:01:47;;;;;;;1.58;1.38;;;;;;;12.95;59.80;99827.09;4861877;29;20102;-57
2023/09/09 08:04:13;;;;;;;1.20;1.10;;;;;;;12.98;59.44;99821.28;4861161;29;20397;-57
2023/09/09 08:06:39;;;;;;;1.90;1.00;;;;;;;12.88;59.51;99839.72;4861189;29;20453;-58
2023/09/09 08:09:04;;;;;;;2.00;1.80;;;;;;;12.78;59.64;99823.59;4861314;29;20116;-55
2023/09/09 08:11:30;;;;;;;2.38;1.15;;;;;;;12.80;59.38;99832.16;4860434;29;20053;-59
2023/09/09 08:13:55;;;;;;;2.00;1.50;;;;;;;12.73;59.87;99834.97;4862032;29;20053;-57
2023/09/09 08:16:21;;;;;;;2.10;1.90;;;;;;;12.70;60.66;99838.91;4861447;29;20068;-57
2023/09/09 08:18:47;;;;;;;1.55;1.40;;;;;;;12.76;60.47;99837.13;4861769;29;20046;-58
2023/09/09 08:21:13;;;;;;;2.67;1.90;;;;;;;12.67;60.74;99828.75;4860131;29;20056;-60
2023/09/09 08:23:41;;;;;;;2.50;2.30;;;;;;;12.73;61.00;99819.00;4861336;29;20058;-59
2023/09/09 08:26:07;;;;;;;1.65;1.50;;;;;;;12.87;61.18;99825.63;4861261;29;20136;-59
2023/09/09 08:28:33;;;;;;;1.85;1.23;;;;;;;12.97;61.36;99817.00;4861524;29;20132;-57
2023/09/09 08:30:59;;;;;;;1.55;1.40;;;;;;;12.99;61.97;99824.75;4843481;29;20415;-57
2023/09/09 08:33:26;;;;;;;1.13;1.13;;;;;;;13.14;61.62;99823.09;4844718;29;20057;-58
2023/09/09 08:35:59;;;;;;;2.30;1.40;;;;;;;13.05;61.76;99816.59;4844559;29;20053;-57
2023/09/09 08:38:25;;;;;;;2.25;1.40;;;;;;;13.08;61.59;99825.94;4861476;29;20050;-57
2023/09/09 08:41:04;;;;;;;1.48;1.23;;;;;;;13.09;61.99;99831.03;4860842;29;20064;-57
2023/09/09 08:43:48;;;;;;;2.80;1.50;;;;;;;13.11;61.64;99825.44;4861225;29;20077;-58
2023/09/09 08:46:17;;;;;;;2.40;1.60;;;;;;;13.18;61.80;99826.09;4861759;29;20045;-58
2023/09/09 08:48:43;;;;;;;2.55;1.67;;;;;;;13.17;61.99;99824.47;4860791;29;20053;-58
2023/09/09 08:51:14;;;;;;;1.38;1.27;;;;;;;13.09;62.05;99817.72;4861139;29;20038;-58
2023/09/09 08:53:50;;;;;;;2.60;1.50;;;;;;;13.11;62.21;99820.13;4859640;29;20049;-56
2023/09/09 08:56:16;;;;;;;1.58;1.30;;;;;;;13.04;62.79;99819.50;4859881;29;20093;-56
2023/09/09 08:58:43;;;;;;;1.20;1.10;;;;;;;13.01;62.70;99817.31;4844373;29;20504;-55
2023/09/09 09:01:11;;;;;;;1.40;1.30;;;;;;;13.15;63.15;99821.28;4814449;29;20080;-55
2023/09/09 09:03:36;;;;;;;1.52;1.42;;;;;;;13.13;62.62;99818.84;4860475;29;20057;-57
2023/09/09 09:06:04;;;;;;;1.35;1.20;;;;;;;13.05;62.48;99823.78;4860675;29;20049;-58
2023/09/09 09:08:30;;;;;;;3.47;1.50;;;;;;;13.04;62.56;99824.81;4860339;29;20145;-57
2023/09/09 09:10:57;;;;;;;1.45;1.35;;;;;;;13.05;62.98;99832.56;4860501;29;20065;-57
2023/09/09 09:13:23;;;;;;;1.30;1.20;;;;;;;13.10;63.12;99834.50;4860826;29;20081;-57
2023/09/09 09:15:49;;;;;;;1.55;1.20;;;;;;;13.06;63.40;99830.69;4859123;29;20073;-59
2023/09/09 09:18:15;;;;;;;2.13;1.20;;;;;;;13.14;63.12;99827.63;4860734;29;20061;-58
2023/09/09 09:20:41;;;;;;;1.75;1.38;;;;;;;13.10;62.99;99829.97;4860574;29;20068;-57
2023/09/09 09:23:11;;;;;;;1.45;1.35;;;;;;;13.17;63.31;99825.28;4860506;29;20081;-55
2023/09/09 09:25:42;;;;;;;1.42;1.33;;;;;;;13.26;63.26;99814.25;4860642;29;20073;-57
2023/09/09 09:28:08;;;;;;;1.85;1.30;;;;;;;13.25;62.94;99817.94;4859354;29;20091;-57
2023/09/09 09:30:34;;;;;;;3.70;1.90;;;;;;;13.31;63.48;99817.00;4860171;29;20059;-59
2023/09/09 09:33:00;;;;;;;2.33;1.70;;;;;;;13.25;63.87;99813.47;4860275;29;20139;-59
2023/09/09 09:35:30;;;;;;;2.53;1.90;;;;;;;13.27;63.19;99816.69;4860092;29;20128;-59
2023/09/09 09:38:06;;;;;;;1.90;1.52;;;;;;;13.23;64.33;99809.38;4843228;29;20050;-59
2023/09/09 09:40:32;;;;;;;2.80;1.50;;;;;;;13.30;63.65;99810.06;4859836;29;20098;-54
2023/09/09 09:42:58;;;;;;;4.45;3.35;;;;;;;13.19;63.79;99806.41;4857369;29;20057;-58
2023/09/09 09:45:28;;;;;;;3.33;1.70;;;;;;;13.17;64.38;99819.97;4859629;29;20041;-57
2023/09/09 09:47:55;;;;;;;1.60;1.50;;;;;;;13.17;64.21;99816.50;4843192;29;20053;-51
2023/09/09 09:50:28;;;;;;;2.30;1.50;;;;;;;13.16;64.74;99813.03;4859898;29;20057;-53
2023/09/09 09:52:58;;;;;;;2.05;1.52;;;;;;;13.17;65.32;99827.13;4859733;29;20049;-57
2023/09/09 09:55:25;;;;;;;2.17;1.50;;;;;;;13.21;64.87;99816.81;4856779;29;20042;-58
2023/09/09 09:57:53;;;;;;;3.35;1.77;;;;;;;13.31;65.06;99817.81;4857571;29;20055;-58
2023/09/09 10:00:19;;;;;;;1.60;1.50;;;;;;;13.37;64.32;99818.69;4857355;29;20094;-58
2023/09/09 10:02:46;;;;;;;1.98;1.40;;;;;;;13.57;64.51;99815.50;4857965;29;20491;-58
2023/09/09 10:05:14;;;;;;;1.40;1.30;;;;;;;13.60;63.93;99825.66;4858273;29;20041;-59
2023/09/09 10:07:45;;;;;;;1.60;1.30;;;;;;;13.61;64.68;99819.28;4858293;29;20465;-59
2023/09/09 10:10:16;;;;;;;2.38;1.70;;;;;;;13.83;63.95;99817.44;4858999;29;20136;-57
2023/09/09 10:12:52;;;;;;;2.08;1.60;;;;;;;14.03;63.70;99816.03;4859633;29;20065;-58
2023/09/09 10:15:21;;;;;;;2.55;1.90;;;;;;;14.09;62.75;99820.41;4858236;29;20401;-58
2023/09/09 10:17:50;;;;;;;2.53;1.95;;;;;;;14.06;63.26;99824.38;4859495;29;20114;-60
2023/09/09 10:20:17;;;;;;;3.63;1.60;;;;;;;14.02;63.21;99817.91;4859154;29;20135;-58
2023/09/09 10:22:50;;;;;;;2.47;1.50;;;;;;;14.03;63.17;99818.69;4856914;29;20055;-55
2023/09/09 10:25:20;;;;;;;2.92;1.40;;;;;;;13.98;63.82;99832.78;4826602;29;20087;-59
2023/09/09 10:27:47;;;;;;;2.33;1.30;;;;;;;13.89;63.86;99814.84;4841723;29;20077;-57
2023/09/09 10:30:13;;;;;;;1.88;1.50;;;;;;;13.99;63.75;99821.06;4858714;29;20046;-56
2023/09/09 10:32:40;;;;;;;2.60;1.50;;;;;;;14.14;63.43;99828.44;4859275;29;20081;-56
2023/09/09 10:35:07;;;;;;;2.50;1.40;;;;;;;14.16;63.85;99815.66;4859413;29;20061;-55
2023/09/09 10:37:35;;;;;;;2.55;1.40;;;;;;;14.34;63.67;99817.19;4858739;29;20053;-57
2023/09/09 10:40:02;;;;;;;1.42;1.33;;;;;;;14.48;63.55;99817.59;4842628;29;20431;-54
2023/09/09 10:42:29;;;;;;;2.05;1.30;;;;;;;14.56;62.60;99821.69;4857951;29;20072;-57
2023/09/09 10:45:00;;;;;;;1.40;1.30;;;;;;;14.61;62.67;99814.53;4858029;29;20049;-57
2023/09/09 10:47:26;;;;;;;2.88;1.40;;;;;;;14.84;62.48;99810.72;4857797;29;20471;-58
2023/09/09 10:50:04;;;;;;;1.50;1.27;;;;;;;14.99;61.90;99821.50;4858828;29;20089;-58
2023/09/09 10:52:34;;;;;;;1.75;1.25;;;;;;;14.94;61.85;99810.00;4858922;29;20062;-55
2023/09/09 10:55:29;;;;;;;2.00;1.50;;;;;;;14.85;62.50;99806.19;4858945;29;20122;-58
2023/09/09 10:57:57;;;;;;;4.13;1.80;;;;;;;15.01;62.80;99823.16;4859247;29;20085;-58
2023/09/09 11:00:40;;;;;;;2.42;1.60;;;;;;;15.06;62.15;99813.31;4857988;29;20088;-60
2023/09/09 11:03:16;;;;;;;1.70;1.60;;;;;;;14.98;62.99;99811.91;4857735;29;20045;-57
2023/09/09 11:06:07;;;;;;;4.50;1.73;;;;;;;15.01;62.40;99804.47;4858863;29;20045;-57
2023/09/09 11:08:44;;;;;;;5.13;1.95;;;;;;;14.91;63.01;99807.84;4859114;29;20049;-58
2023/09/09 11:11:37;;;;;;;5.07;1.73;;;;;;;14.93;64.01;99803.84;4858054;29;20084;-57
2023/09/09 11:14:05;;;;;;;3.58;1.70;;;;;;;15.04;63.81;99803.94;4857147;29;20072;-57
2023/09/09 11:16:38;;;;;;;3.65;1.88;;;;;;;15.16;63.46;99805.34;4858847;29;20045;-57
2023/09/09 11:19:08;;;;;;;2.17;1.75;;;;;;;15.22;62.62;99803.53;4858806;29;20140;-56
2023/09/09 11:21:36;;;;;;;3.70;1.90;;;;;;;15.32;62.69;99792.09;4857750;29;20037;-57
2023/09/09 11:24:02;;;;;;;3.03;2.20;;;;;;;15.37;61.98;99795.59;4858710;29;20086;-58
2023/09/09 11:26:28;;;;;;;3.03;2.05;;;;;;;15.26;62.46;99807.28;4857900;29;20085;-58
2023/09/09 11:28:54;;;;;;;2.65;2.10;;;;;;;15.27;62.47;99797.41;4858305;29;20499;-58
2023/09/09 11:31:22;;;;;;;1.98;1.77;;;;;;;15.32;62.69;99800.91;4858704;29;20053;-58
2023/09/09 11:33:47;;;;;;;3.75;1.65;;;;;;;15.34;62.43;99808.66;4857989;29;20055;-59
2023/09/09 11:36:17;;;;;;;3.08;1.80;;;;;;;15.35;62.13;99802.25;4857620;29;20423;-57